sensor_id;sensor_type;location;lat;lon;timestamp;P1;durP1;ratioP1;P2;durP2;ratioP2
39502;SDS011;26970;49.900;10.774;2023-07-02T00:02:17;7.15;;;3.70;;
39502;SDS011;26970;49.900;10.774;2023-07-02T00:04:44;8.02;;;3.63;;
39502;SDS011;26970;49.900;10.774;2023-07-02T00:07:10;5.07;;;3.90;;
39502;SDS011;26970;49.900;10.774;2023-07-02T00:09:36;5.28;;;3.70;;
39502;SDS011;26970;49.900;10.774;2023-07-02T00:12:01;5.50;;;3.70;;
39502;SDS011;26970;49.900;10.774;2023-07-02T00:14:27;5.22;;;3.83;;
39502;SDS011;26970;49.900;10.774;2023-07-02T00:16:53;5.32;;;3.40;;
39502;SDS011;26970;49.900;10.774;2023-07-02T00:19:18;6.07;;;3.53;;
39502;SDS011;26970;49.900;10.774;2023-07-02T00:21:44;6.53;;;3.97;;
39502;SDS011;26970;49.900;10.774;2023-07-02T00:24:09;5.18;;;3.65;;
39502;SDS011;26970;49.900;10.774;2023-07-02T00:26:35;5.13;;;3.67;;
39502;SDS011;26970;49.900;10.774;2023-07-02T00:29:03;4.78;;;4.03;;
39502;SDS011;26970;49.900;10.774;2023-07-02T00:31:31;5.57;;;4.03;;
39502;SDS011;26970;49.900;10.774;2023-07-02T00:33:57;7.07;;;4.28;;
39502;SDS011;26970;49.900;10.774;2023-07-02T00:36:22;5.30;;;4.13;;
39502;SDS011;26970;49.900;10.774;2023-07-02T00:38:48;5.07;;;3.83;;
39502;SDS011;26970;49.900;10.774;2023-07-02T00:41:14;6.15;;;4.18;;
39502;SDS011;26970;49.900;10.774;2023-07-02T00:43:40;6.82;;;4.50;;
39502;SDS011;26970;49.900;10.774;2023-07-02T00:46:11;8.70;;;4.60;;
39502;SDS011;26970;49.900;10.774;2023-07-02T00:48:48;7.95;;;4.57;;
39502;SDS011;26970;49.900;10.774;2023-07-02T00:51:16;5.53;;;4.13;;
39502;SDS011;26970;49.900;10.774;2023-07-02T00:53:46;6.50;;;5.25;;
39502;SDS011;26970;49.900;10.774;2023-07-02T00:56:13;6.07;;;4.78;;
39502;SDS011;26970;49.900;10.774;2023-07-02T00:58:40;7.20;;;4.53;;
39502;SDS011;26970;49.900;10.774;2023-07-02T01:01:11;6.25;;;4.70;;
39502;SDS011;26970;49.900;10.774;2023-07-02T01:03:38;6.38;;;4.53;;
39502;SDS011;26970;49.900;10.774;2023-07-02T01:06:17;6.07;;;4.53;;
39502;SDS011;26970;49.900;10.774;2023-07-02T01:08:45;7.80;;;4.97;;
39502;SDS011;26970;49.900;10.774;2023-07-02T01:11:10;7.88;;;4.70;;
39502;SDS011;26970;49.900;10.774;2023-07-02T01:13:36;6.68;;;5.07;;
39502;SDS011;26970;49.900;10.774;2023-07-02T01:16:02;6.70;;;4.97;;
39502;SDS011;26970;49.900;10.774;2023-07-02T01:18:28;5.93;;;5.03;;
39502;SDS011;26970;49.900;10.774;2023-07-02T01:20:55;7.35;;;5.10;;
39502;SDS011;26970;49.900;10.774;2023-07-02T01:23:21;6.30;;;5.03;;
39502;SDS011;26970;49.900;10.774;2023-07-02T01:25:46;6.47;;;4.68;;
39502;SDS011;26970;49.900;10.774;2023-07-02T01:28:12;6.20;;;5.10;;
39502;SDS011;26970;49.900;10.774;2023-07-02T01:30:38;9.70;;;5.00;;
39502;SDS011;26970;49.900;10.774;2023-07-02T01:33:04;6.20;;;4.97;;
39502;SDS011;26970;49.900;10.774;2023-07-02T01:35:29;7.40;;;4.82;;
39502;SDS011;26970;49.900;10.774;2023-07-02T01:37:55;6.38;;;5.07;;
39502;SDS011;26970;49.900;10.774;2023-07-02T01:40:21;6.85;;;5.25;;
39502;SDS011;26970;49.900;10.774;2023-07-02T01:42:46;8.07;;;5.05;;
39502;SDS011;26970;49.900;10.774;2023-07-02T01:45:12;6.45;;;4.85;;
39502;SDS011;26970;49.900;10.774;2023-07-02T01:47:37;8.60;;;4.88;;
39502;SDS011;26970;49.900;10.774;2023-07-02T01:50:03;9.18;;;5.65;;
39502;SDS011;26970;49.900;10.774;2023-07-02T01:52:30;9.00;;;5.43;;
39502;SDS011;26970;49.900;10.774;2023-07-02T01:54:58;8.15;;;5.22;;
39502;SDS011;26970;49.900;10.774;2023-07-02T01:57:24;8.80;;;5.38;;
39502;SDS011;26970;49.900;10.774;2023-07-02T01:59:50;10.32;;;5.55;;
39502;SDS011;26970;49.900;10.774;2023-07-02T02:02:15;7.38;;;5.18;;
39502;SDS011;26970;49.900;10.774;2023-07-02T02:04:41;6.38;;;5.28;;
39502;SDS011;26970;49.900;10.774;2023-07-02T02:07:06;6.32;;;5.20;;
39502;SDS011;26970;49.900;10.774;2023-07-02T02:09:32;8.88;;;5.38;;
39502;SDS011;26970;49.900;10.774;2023-07-02T02:11:57;6.80;;;4.90;;
39502;SDS011;26970;49.900;10.774;2023-07-02T02:14:23;6.93;;;5.25;;
39502;SDS011;26970;49.900;10.774;2023-07-02T02:16:49;6.40;;;4.88;;
39502;SDS011;26970;49.900;10.774;2023-07-02T02:19:14;6.18;;;4.68;;
39502;SDS011;26970;49.900;10.774;2023-07-02T02:21:41;6.38;;;4.82;;
39502;SDS011;26970;49.900;10.774;2023-07-02T02:24:06;5.80;;;4.90;;
39502;SDS011;26970;49.900;10.774;2023-07-02T02:26:32;5.93;;;4.78;;
39502;SDS011;26970;49.900;10.774;2023-07-02T02:28:58;6.88;;;5.10;;
39502;SDS011;26970;49.900;10.774;2023-07-02T02:31:24;7.95;;;5.30;;
39502;SDS011;26970;49.900;10.774;2023-07-02T02:33:50;6.20;;;4.88;;
39502;SDS011;26970;49.900;10.774;2023-07-02T02:36:15;6.38;;;5.18;;
39502;SDS011;26970;49.900;10.774;2023-07-02T02:38:42;5.25;;;4.68;;
39502;SDS011;26970;49.900;10.774;2023-07-02T02:41:08;4.80;;;4.03;;
39502;SDS011;26970;49.900;10.774;2023-07-02T02:43:33;5.65;;;4.53;;
39502;SDS011;26970;49.900;10.774;2023-07-02T02:45:59;6.35;;;4.63;;
39502;SDS011;26970;49.900;10.774;2023-07-02T02:48:25;7.75;;;4.47;;
39502;SDS011;26970;49.900;10.774;2023-07-02T02:50:50;7.90;;;4.93;;
39502;SDS011;26970;49.900;10.774;2023-07-02T02:53:16;5.53;;;4.40;;
39502;SDS011;26970;49.900;10.774;2023-07-02T02:55:42;6.13;;;4.60;;
39502;SDS011;26970;49.900;10.774;2023-07-02T02:58:07;7.32;;;4.75;;
39502;SDS011;26970;49.900;10.774;2023-07-02T03:00:33;7.20;;;4.72;;
39502;SDS011;26970;49.900;10.774;2023-07-02T03:02:58;5.50;;;4.40;;
39502;SDS011;26970;49.900;10.774;2023-07-02T03:05:24;8.57;;;4.50;;
39502;SDS011;26970;49.900;10.774;2023-07-02T03:07:51;5.85;;;4.55;;
39502;SDS011;26970;49.900;10.774;2023-07-02T03:10:16;12.13;;;5.00;;
39502;SDS011;26970;49.900;10.774;2023-07-02T03:12:42;6.90;;;4.88;;
39502;SDS011;26970;49.900;10.774;2023-07-02T03:15:08;6.18;;;4.50;;
39502;SDS011;26970;49.900;10.774;2023-07-02T03:17:34;6.20;;;4.90;;
39502;SDS011;26970;49.900;10.774;2023-07-02T03:20:00;7.45;;;4.43;;
39502;SDS011;26970;49.900;10.774;2023-07-02T03:22:28;6.50;;;4.75;;
39502;SDS011;26970;49.900;10.774;2023-07-02T03:24:54;5.80;;;4.68;;
39502;SDS011;26970;49.900;10.774;2023-07-02T03:27:19;6.65;;;4.80;;
39502;SDS011;26970;49.900;10.774;2023-07-02T03:29:45;6.60;;;4.57;;
39502;SDS011;26970;49.900;10.774;2023-07-02T03:32:10;7.97;;;4.70;;
39502;SDS011;26970;49.900;10.774;2023-07-02T03:34:36;6.13;;;4.22;;
39502;SDS011;26970;49.900;10.774;2023-07-02T03:37:01;6.90;;;5.13;;
39502;SDS011;26970;49.900;10.774;2023-07-02T03:39:27;6.15;;;4.55;;
39502;SDS011;26970;49.900;10.774;2023-07-02T03:41:53;7.75;;;4.75;;
39502;SDS011;26970;49.900;10.774;2023-07-02T03:44:18;5.75;;;4.10;;
39502;SDS011;26970;49.900;10.774;2023-07-02T03:46:44;7.60;;;3.97;;
39502;SDS011;26970;49.900;10.774;2023-07-02T03:49:10;5.75;;;4.00;;
39502;SDS011;26970;49.900;10.774;2023-07-02T03:51:35;7.60;;;4.20;;
39502;SDS011;26970;49.900;10.774;2023-07-02T03:54:01;6.07;;;4.13;;
39502;SDS011;26970;49.900;10.774;2023-07-02T03:56:26;5.95;;;3.75;;
39502;SDS011;26970;49.900;10.774;2023-07-02T03:58:52;6.93;;;3.80;;
39502;SDS011;26970;49.900;10.774;2023-07-02T04:01:18;5.85;;;3.60;;
39502;SDS011;26970;49.900;10.774;2023-07-02T04:03:50;7.22;;;3.58;;
39502;SDS011;26970;49.900;10.774;2023-07-02T04:06:16;7.43;;;3.60;;
39502;SDS011;26970;49.900;10.774;2023-07-02T04:08:43;6.22;;;3.35;;
39502;SDS011;26970;49.900;10.774;2023-07-02T04:11:09;8.48;;;3.20;;
39502;SDS011;26970;49.900;10.774;2023-07-02T04:13:35;4.80;;;2.85;;
39502;SDS011;26970;49.900;10.774;2023-07-02T04:16:00;5.75;;;3.80;;
39502;SDS011;26970;49.900;10.774;2023-07-02T04:18:26;4.18;;;3.05;;
39502;SDS011;26970;49.900;10.774;2023-07-02T04:20:52;5.72;;;2.70;;
39502;SDS011;26970;49.900;10.774;2023-07-02T04:23:17;4.68;;;2.60;;
39502;SDS011;26970;49.900;10.774;2023-07-02T04:25:43;5.80;;;2.90;;
39502;SDS011;26970;49.900;10.774;2023-07-02T04:28:08;4.78;;;2.80;;
39502;SDS011;26970;49.900;10.774;2023-07-02T04:30:34;4.07;;;2.75;;
39502;SDS011;26970;49.900;10.774;2023-07-02T04:33:00;5.60;;;2.65;;
39502;SDS011;26970;49.900;10.774;2023-07-02T04:35:25;7.07;;;2.50;;
39502;SDS011;26970;49.900;10.774;2023-07-02T04:37:51;4.53;;;2.83;;
39502;SDS011;26970;49.900;10.774;2023-07-02T04:40:16;6.53;;;2.90;;
39502;SDS011;26970;49.900;10.774;2023-07-02T04:42:42;5.05;;;2.92;;
39502;SDS011;26970;49.900;10.774;2023-07-02T04:45:22;5.07;;;2.80;;
39502;SDS011;26970;49.900;10.774;2023-07-02T04:47:49;6.35;;;2.78;;
39502;SDS011;26970;49.900;10.774;2023-07-02T04:50:15;7.70;;;2.92;;
39502;SDS011;26970;49.900;10.774;2023-07-02T04:52:44;7.55;;;3.33;;
39502;SDS011;26970;49.900;10.774;2023-07-02T04:55:10;7.55;;;3.63;;
39502;SDS011;26970;49.900;10.774;2023-07-02T04:57:36;5.63;;;3.28;;
39502;SDS011;26970;49.900;10.774;2023-07-02T05:00:02;6.47;;;3.60;;
39502;SDS011;26970;49.900;10.774;2023-07-02T05:02:30;7.43;;;3.45;;
39502;SDS011;26970;49.900;10.774;2023-07-02T05:04:56;7.25;;;3.65;;
39502;SDS011;26970;49.900;10.774;2023-07-02T05:07:21;5.32;;;3.33;;
39502;SDS011;26970;49.900;10.774;2023-07-02T05:09:47;9.45;;;3.20;;
39502;SDS011;26970;49.900;10.774;2023-07-02T05:12:17;5.82;;;3.30;;
39502;SDS011;26970;49.900;10.774;2023-07-02T05:14:43;5.82;;;3.40;;
39502;SDS011;26970;49.900;10.774;2023-07-02T05:17:09;8.10;;;3.60;;
39502;SDS011;26970;49.900;10.774;2023-07-02T05:19:35;8.65;;;3.15;;
39502;SDS011;26970;49.900;10.774;2023-07-02T05:22:01;5.70;;;3.40;;
39502;SDS011;26970;49.900;10.774;2023-07-02T05:24:26;7.60;;;4.32;;
39502;SDS011;26970;49.900;10.774;2023-07-02T05:26:52;7.93;;;4.35;;
39502;SDS011;26970;49.900;10.774;2023-07-02T05:29:18;9.68;;;4.97;;
39502;SDS011;26970;49.900;10.774;2023-07-02T05:31:44;10.00;;;4.57;;
39502;SDS011;26970;49.900;10.774;2023-07-02T05:34:09;10.68;;;4.55;;
39502;SDS011;26970;49.900;10.774;2023-07-02T05:36:35;9.40;;;4.68;;
39502;SDS011;26970;49.900;10.774;2023-07-02T05:39:01;7.88;;;4.63;;
39502;SDS011;26970;49.900;10.774;2023-07-02T05:41:26;9.90;;;4.38;;
39502;SDS011;26970;49.900;10.774;2023-07-02T05:43:55;8.35;;;4.65;;
39502;SDS011;26970;49.900;10.774;2023-07-02T05:46:27;8.13;;;4.95;;
39502;SDS011;26970;49.900;10.774;2023-07-02T05:48:52;12.18;;;4.88;;
39502;SDS011;26970;49.900;10.774;2023-07-02T05:51:21;7.78;;;4.82;;
39502;SDS011;26970;49.900;10.774;2023-07-02T05:53:47;13.35;;;4.97;;
39502;SDS011;26970;49.900;10.774;2023-07-02T05:56:13;7.35;;;4.18;;
39502;SDS011;26970;49.900;10.774;2023-07-02T05:58:38;8.68;;;4.50;;
39502;SDS011;26970;49.900;10.774;2023-07-02T06:01:04;9.95;;;5.00;;
39502;SDS011;26970;49.900;10.774;2023-07-02T06:03:30;9.60;;;4.80;;
39502;SDS011;26970;49.900;10.774;2023-07-02T06:05:56;11.68;;;4.75;;
39502;SDS011;26970;49.900;10.774;2023-07-02T06:08:22;7.38;;;4.63;;
39502;SDS011;26970;49.900;10.774;2023-07-02T06:10:47;11.20;;;4.82;;
39502;SDS011;26970;49.900;10.774;2023-07-02T06:13:13;10.80;;;4.55;;
39502;SDS011;26970;49.900;10.774;2023-07-02T06:15:39;8.93;;;4.90;;
39502;SDS011;26970;49.900;10.774;2023-07-02T06:18:05;12.40;;;5.30;;
39502;SDS011;26970;49.900;10.774;2023-07-02T06:20:31;10.95;;;5.30;;
39502;SDS011;26970;49.900;10.774;2023-07-02T06:22:56;11.75;;;5.15;;
39502;SDS011;26970;49.900;10.774;2023-07-02T06:25:22;10.05;;;5.03;;
39502;SDS011;26970;49.900;10.774;2023-07-02T06:27:47;9.15;;;5.28;;
39502;SDS011;26970;49.900;10.774;2023-07-02T06:30:13;7.88;;;4.90;;
39502;SDS011;26970;49.900;10.774;2023-07-02T06:32:39;10.38;;;5.05;;
39502;SDS011;26970;49.900;10.774;2023-07-02T06:35:05;13.20;;;5.13;;
39502;SDS011;26970;49.900;10.774;2023-07-02T06:37:31;8.57;;;5.10;;
39502;SDS011;26970;49.900;10.774;2023-07-02T06:39:57;11.82;;;5.90;;
39502;SDS011;26970;49.900;10.774;2023-07-02T06:42:23;9.07;;;5.03;;
39502;SDS011;26970;49.900;10.774;2023-07-02T06:44:49;11.23;;;5.68;;
39502;SDS011;26970;49.900;10.774;2023-07-02T06:47:15;17.45;;;5.68;;
39502;SDS011;26970;49.900;10.774;2023-07-02T06:49:40;9.77;;;5.20;;
39502;SDS011;26970;49.900;10.774;2023-07-02T06:52:06;10.95;;;5.30;;
39502;SDS011;26970;49.900;10.774;2023-07-02T06:54:31;8.15;;;4.68;;
39502;SDS011;26970;49.900;10.774;2023-07-02T06:56:57;11.38;;;5.20;;
39502;SDS011;26970;49.900;10.774;2023-07-02T06:59:23;9.18;;;4.72;;
39502;SDS011;26970;49.900;10.774;2023-07-02T07:01:49;8.98;;;5.32;;
39502;SDS011;26970;49.900;10.774;2023-07-02T07:04:15;9.23;;;5.68;;
39502;SDS011;26970;49.900;10.774;2023-07-02T07:06:41;10.75;;;5.10;;
39502;SDS011;26970;49.900;10.774;2023-07-02T07:09:07;9.40;;;5.63;;
39502;SDS011;26970;49.900;10.774;2023-07-02T07:11:33;10.57;;;5.78;;
39502;SDS011;26970;49.900;10.774;2023-07-02T07:13:58;9.93;;;5.13;;
39502;SDS011;26970;49.900;10.774;2023-07-02T07:16:24;11.02;;;5.82;;
39502;SDS011;26970;49.900;10.774;2023-07-02T07:18:50;9.90;;;4.97;;
39502;SDS011;26970;49.900;10.774;2023-07-02T07:21:15;12.25;;;5.22;;
39502;SDS011;26970;49.900;10.774;2023-07-02T07:23:41;8.57;;;5.50;;
39502;SDS011;26970;49.900;10.774;2023-07-02T07:26:07;9.10;;;5.15;;
39502;SDS011;26970;49.900;10.774;2023-07-02T07:28:32;11.68;;;5.25;;
39502;SDS011;26970;49.900;10.774;2023-07-02T07:30:58;10.70;;;6.10;;
39502;SDS011;26970;49.900;10.774;2023-07-02T07:33:23;11.65;;;5.63;;
39502;SDS011;26970;49.900;10.774;2023-07-02T07:35:49;13.63;;;5.80;;
39502;SDS011;26970;49.900;10.774;2023-07-02T07:38:14;11.25;;;5.28;;
39502;SDS011;26970;49.900;10.774;2023-07-02T07:40:40;10.05;;;5.47;;
39502;SDS011;26970;49.900;10.774;2023-07-02T07:43:07;10.82;;;5.78;;
39502;SDS011;26970;49.900;10.774;2023-07-02T07:45:33;11.00;;;5.32;;
39502;SDS011;26970;49.900;10.774;2023-07-02T07:47:59;11.05;;;5.78;;
39502;SDS011;26970;49.900;10.774;2023-07-02T07:50:25;10.35;;;5.70;;
39502;SDS011;26970;49.900;10.774;2023-07-02T07:52:50;11.73;;;5.50;;
39502;SDS011;26970;49.900;10.774;2023-07-02T07:55:16;10.85;;;5.75;;
39502;SDS011;26970;49.900;10.774;2023-07-02T07:57:42;15.30;;;5.50;;
39502;SDS011;26970;49.900;10.774;2023-07-02T08:00:08;8.80;;;4.97;;
39502;SDS011;26970;49.900;10.774;2023-07-02T08:02:37;14.27;;;5.68;;
39502;SDS011;26970;49.900;10.774;2023-07-02T08:05:03;8.88;;;5.22;;
39502;SDS011;26970;49.900;10.774;2023-07-02T08:07:30;10.18;;;5.35;;
39502;SDS011;26970;49.900;10.774;2023-07-02T08:09:56;12.20;;;5.80;;
39502;SDS011;26970;49.900;10.774;2023-07-02T08:12:23;10.38;;;5.65;;
39502;SDS011;26970;49.900;10.774;2023-07-02T08:14:49;10.23;;;5.57;;
39502;SDS011;26970;49.900;10.774;2023-07-02T08:17:14;10.80;;;5.25;;
39502;SDS011;26970;49.900;10.774;2023-07-02T08:19:40;9.30;;;5.28;;
39502;SDS011;26970;49.900;10.774;2023-07-02T08:22:05;9.88;;;4.95;;
39502;SDS011;26970;49.900;10.774;2023-07-02T08:24:31;10.50;;;4.90;;
39502;SDS011;26970;49.900;10.774;2023-07-02T08:26:57;9.32;;;5.65;;
39502;SDS011;26970;49.900;10.774;2023-07-02T08:29:23;11.60;;;5.32;;
39502;SDS011;26970;49.900;10.774;2023-07-02T08:31:49;8.38;;;5.38;;
39502;SDS011;26970;49.900;10.774;2023-07-02T08:34:14;8.30;;;4.97;;
39502;SDS011;26970;49.900;10.774;2023-07-02T08:36:40;9.27;;;4.97;;
39502;SDS011;26970;49.900;10.774;2023-07-02T08:39:05;9.60;;;5.28;;
39502;SDS011;26970;49.900;10.774;2023-07-02T08:41:41;10.85;;;5.70;;
39502;SDS011;26970;49.900;10.774;2023-07-02T08:44:08;8.48;;;5.38;;
39502;SDS011;26970;49.900;10.774;2023-07-02T08:46:34;9.13;;;5.00;;
39502;SDS011;26970;49.900;10.774;2023-07-02T08:49:00;11.05;;;5.63;;
39502;SDS011;26970;49.900;10.774;2023-07-02T08:51:25;13.40;;;5.70;;
39502;SDS011;26970;49.900;10.774;2023-07-02T08:53:51;9.60;;;5.43;;
39502;SDS011;26970;49.900;10.774;2023-07-02T08:56:16;7.80;;;4.95;;
39502;SDS011;26970;49.900;10.774;2023-07-02T08:58:42;11.27;;;5.35;;
39502;SDS011;26970;49.900;10.774;2023-07-02T09:01:09;10.65;;;5.20;;
39502;SDS011;26970;49.900;10.774;2023-07-02T09:03:38;9.57;;;5.18;;
39502;SDS011;26970;49.900;10.774;2023-07-02T09:06:05;8.52;;;5.50;;
39502;SDS011;26970;49.900;10.774;2023-07-02T09:08:32;8.35;;;4.95;;
39502;SDS011;26970;49.900;10.774;2023-07-02T09:11:10;9.85;;;5.55;;
39502;SDS011;26970;49.900;10.774;2023-07-02T09:13:44;10.05;;;5.55;;
39502;SDS011;26970;49.900;10.774;2023-07-02T09:16:29;9.82;;;5.40;;
39502;SDS011;26970;49.900;10.774;2023-07-02T09:21:49;8.40;;;5.10;;
39502;SDS011;26970;49.900;10.774;2023-07-02T09:24:23;10.02;;;5.07;;
39502;SDS011;26970;49.900;10.774;2023-07-02T09:26:50;12.93;;;5.25;;
39502;SDS011;26970;49.900;10.774;2023-07-02T09:29:23;11.40;;;5.32;;
39502;SDS011;26970;49.900;10.774;2023-07-02T09:31:54;12.00;;;6.10;;
39502;SDS011;26970;49.900;10.774;2023-07-02T09:34:26;10.20;;;5.53;;
39502;SDS011;26970;49.900;10.774;2023-07-02T09:36:56;10.00;;;5.60;;
39502;SDS011;26970;49.900;10.774;2023-07-02T09:39:25;10.13;;;5.60;;
39502;SDS011;26970;49.900;10.774;2023-07-02T09:41:56;12.57;;;6.32;;
39502;SDS011;26970;49.900;10.774;2023-07-02T09:44:25;9.60;;;5.93;;
39502;SDS011;26970;49.900;10.774;2023-07-02T09:47:02;8.10;;;4.97;;
39502;SDS011;26970;49.900;10.774;2023-07-02T09:49:31;10.40;;;5.32;;
39502;SDS011;26970;49.900;10.774;2023-07-02T09:51:59;13.68;;;5.95;;
39502;SDS011;26970;49.900;10.774;2023-07-02T09:54:26;10.90;;;6.05;;
39502;SDS011;26970;49.900;10.774;2023-07-02T09:56:53;14.35;;;6.57;;
39502;SDS011;26970;49.900;10.774;2023-07-02T09:59:19;11.25;;;6.00;;
39502;SDS011;26970;49.900;10.774;2023-07-02T10:01:44;10.77;;;6.65;;
39502;SDS011;26970;49.900;10.774;2023-07-02T10:04:11;11.00;;;6.32;;
39502;SDS011;26970;49.900;10.774;2023-07-02T10:06:45;11.00;;;6.05;;
39502;SDS011;26970;49.900;10.774;2023-07-02T10:09:15;10.30;;;6.25;;
39502;SDS011;26970;49.900;10.774;2023-07-02T10:11:42;11.82;;;6.15;;
39502;SDS011;26970;49.900;10.774;2023-07-02T10:14:07;13.05;;;7.20;;
39502;SDS011;26970;49.900;10.774;2023-07-02T10:16:33;10.60;;;6.32;;
39502;SDS011;26970;49.900;10.774;2023-07-02T10:19:08;17.02;;;6.03;;
39502;SDS011;26970;49.900;10.774;2023-07-02T10:21:35;10.90;;;6.45;;
39502;SDS011;26970;49.900;10.774;2023-07-02T10:24:10;14.07;;;6.70;;
39502;SDS011;26970;49.900;10.774;2023-07-02T10:26:37;10.02;;;6.18;;
39502;SDS011;26970;49.900;10.774;2023-07-02T10:29:03;14.75;;;6.53;;
39502;SDS011;26970;49.900;10.774;2023-07-02T10:31:28;12.80;;;6.90;;
39502;SDS011;26970;49.900;10.774;2023-07-02T10:33:54;11.10;;;6.57;;
39502;SDS011;26970;49.900;10.774;2023-07-02T10:36:20;11.57;;;7.47;;
39502;SDS011;26970;49.900;10.774;2023-07-02T10:38:48;12.55;;;6.90;;
39502;SDS011;26970;49.900;10.774;2023-07-02T10:41:27;10.75;;;6.57;;
39502;SDS011;26970;49.900;10.774;2023-07-02T10:43:54;11.57;;;7.28;;
39502;SDS011;26970;49.900;10.774;2023-07-02T10:46:33;11.85;;;6.75;;
39502;SDS011;26970;49.900;10.774;2023-07-02T10:48:59;15.88;;;7.07;;
39502;SDS011;26970;49.900;10.774;2023-07-02T10:51:25;11.88;;;6.60;;
39502;SDS011;26970;49.900;10.774;2023-07-02T10:53:56;14.60;;;6.72;;
39502;SDS011;26970;49.900;10.774;2023-07-02T10:56:26;11.30;;;6.18;;
39502;SDS011;26970;49.900;10.774;2023-07-02T10:58:55;13.23;;;6.13;;
39502;SDS011;26970;49.900;10.774;2023-07-02T11:01:21;9.70;;;5.10;;
39502;SDS011;26970;49.900;10.774;2023-07-02T11:03:55;9.82;;;5.78;;
39502;SDS011;26970;49.900;10.774;2023-07-02T11:06:30;8.57;;;5.28;;
39502;SDS011;26970;49.900;10.774;2023-07-02T11:08:58;9.57;;;5.47;;
39502;SDS011;26970;49.900;10.774;2023-07-02T11:11:24;8.70;;;5.60;;
39502;SDS011;26970;49.900;10.774;2023-07-02T11:13:51;14.02;;;6.15;;
39502;SDS011;26970;49.900;10.774;2023-07-02T11:16:27;10.20;;;6.80;;
39502;SDS011;26970;49.900;10.774;2023-07-02T11:19:05;10.82;;;6.45;;
39502;SDS011;26970;49.900;10.774;2023-07-02T11:21:33;10.32;;;6.15;;
39502;SDS011;26970;49.900;10.774;2023-07-02T11:24:02;11.48;;;7.38;;
39502;SDS011;26970;49.900;10.774;2023-07-02T11:26:35;14.52;;;7.07;;
39502;SDS011;26970;49.900;10.774;2023-07-02T11:29:02;8.98;;;6.40;;
39502;SDS011;26970;49.900;10.774;2023-07-02T11:31:27;12.68;;;6.88;;
39502;SDS011;26970;49.900;10.774;2023-07-02T11:33:53;12.48;;;7.25;;
39502;SDS011;26970;49.900;10.774;2023-07-02T11:36:22;11.07;;;6.70;;
39502;SDS011;26970;49.900;10.774;2023-07-02T11:38:52;10.88;;;6.82;;
39502;SDS011;26970;49.900;10.774;2023-07-02T11:41:20;8.85;;;6.00;;
39502;SDS011;26970;49.900;10.774;2023-07-02T11:43:46;11.98;;;6.85;;
39502;SDS011;26970;49.900;10.774;2023-07-02T11:46:12;10.57;;;5.95;;
39502;SDS011;26970;49.900;10.774;2023-07-02T11:48:38;9.48;;;6.18;;
39502;SDS011;26970;49.900;10.774;2023-07-02T11:51:04;10.50;;;6.40;;
39502;SDS011;26970;49.900;10.774;2023-07-02T11:53:30;11.57;;;6.20;;
39502;SDS011;26970;49.900;10.774;2023-07-02T11:55:55;9.75;;;6.00;;
39502;SDS011;26970;49.900;10.774;2023-07-02T11:58:21;9.30;;;6.13;;
39502;SDS011;26970;49.900;10.774;2023-07-02T12:00:46;9.50;;;6.10;;
39502;SDS011;26970;49.900;10.774;2023-07-02T12:03:12;10.45;;;6.60;;
39502;SDS011;26970;49.900;10.774;2023-07-02T12:05:37;9.80;;;6.40;;
39502;SDS011;26970;49.900;10.774;2023-07-02T12:08:03;11.88;;;6.47;;
39502;SDS011;26970;49.900;10.774;2023-07-02T12:10:29;11.75;;;6.10;;
39502;SDS011;26970;49.900;10.774;2023-07-02T12:12:54;10.80;;;6.03;;
39502;SDS011;26970;49.900;10.774;2023-07-02T12:15:20;9.52;;;6.30;;
39502;SDS011;26970;49.900;10.774;2023-07-02T12:17:45;12.10;;;6.55;;
39502;SDS011;26970;49.900;10.774;2023-07-02T12:20:11;11.10;;;6.45;;
39502;SDS011;26970;49.900;10.774;2023-07-02T12:22:37;10.20;;;6.45;;
39502;SDS011;26970;49.900;10.774;2023-07-02T12:25:02;9.80;;;5.80;;
39502;SDS011;26970;49.900;10.774;2023-07-02T12:27:28;9.93;;;6.22;;
39502;SDS011;26970;49.900;10.774;2023-07-02T12:29:54;11.07;;;6.80;;
39502;SDS011;26970;49.900;10.774;2023-07-02T12:32:20;9.48;;;6.65;;
39502;SDS011;26970;49.900;10.774;2023-07-02T12:34:46;12.13;;;6.35;;
39502;SDS011;26970;49.900;10.774;2023-07-02T12:37:11;9.10;;;5.82;;
39502;SDS011;26970;49.900;10.774;2023-07-02T12:39:42;9.43;;;5.85;;
39502;SDS011;26970;49.900;10.774;2023-07-02T12:42:07;9.40;;;6.32;;
39502;SDS011;26970;49.900;10.774;2023-07-02T12:44:33;9.57;;;6.20;;
39502;SDS011;26970;49.900;10.774;2023-07-02T12:46:58;10.18;;;6.53;;
39502;SDS011;26970;49.900;10.774;2023-07-02T12:49:24;13.07;;;6.82;;
39502;SDS011;26970;49.900;10.774;2023-07-02T12:51:49;11.05;;;6.68;;
39502;SDS011;26970;49.900;10.774;2023-07-02T12:54:15;11.07;;;6.85;;
39502;SDS011;26970;49.900;10.774;2023-07-02T12:56:41;10.07;;;6.40;;
39502;SDS011;26970;49.900;10.774;2023-07-02T12:59:07;10.55;;;6.78;;
39502;SDS011;26970;49.900;10.774;2023-07-02T13:01:32;11.20;;;6.10;;
39502;SDS011;26970;49.900;10.774;2023-07-02T13:03:58;9.82;;;5.78;;
39502;SDS011;26970;49.900;10.774;2023-07-02T13:06:24;10.05;;;6.43;;
39502;SDS011;26970;49.900;10.774;2023-07-02T13:08:50;9.10;;;6.40;;
39502;SDS011;26970;49.900;10.774;2023-07-02T13:11:15;13.73;;;6.20;;
39502;SDS011;26970;49.900;10.774;2023-07-02T13:13:41;10.10;;;6.18;;
39502;SDS011;26970;49.900;10.774;2023-07-02T13:16:06;10.73;;;6.50;;
39502;SDS011;26970;49.900;10.774;2023-07-02T13:18:32;11.60;;;6.72;;
39502;SDS011;26970;49.900;10.774;2023-07-02T13:20:57;10.77;;;7.07;;
39502;SDS011;26970;49.900;10.774;2023-07-02T13:23:23;9.73;;;6.25;;
39502;SDS011;26970;49.900;10.774;2023-07-02T13:25:48;13.05;;;7.13;;
39502;SDS011;26970;49.900;10.774;2023-07-02T13:28:14;14.60;;;7.13;;
39502;SDS011;26970;49.900;10.774;2023-07-02T13:30:40;11.32;;;7.03;;
39502;SDS011;26970;49.900;10.774;2023-07-02T13:33:05;12.68;;;7.32;;
39502;SDS011;26970;49.900;10.774;2023-07-02T13:35:31;11.82;;;7.75;;
39502;SDS011;26970;49.900;10.774;2023-07-02T13:37:56;13.20;;;7.68;;
39502;SDS011;26970;49.900;10.774;2023-07-02T13:40:24;13.32;;;8.57;;
39502;SDS011;26970;49.900;10.774;2023-07-02T13:42:50;13.05;;;7.93;;
39502;SDS011;26970;49.900;10.774;2023-07-02T13:45:15;10.30;;;7.22;;
39502;SDS011;26970;49.900;10.774;2023-07-02T13:47:41;12.55;;;7.70;;
39502;SDS011;26970;49.900;10.774;2023-07-02T13:50:06;14.45;;;8.00;;
39502;SDS011;26970;49.900;10.774;2023-07-02T13:52:32;13.82;;;8.95;;
39502;SDS011;26970;49.900;10.774;2023-07-02T13:54:57;16.90;;;8.23;;
39502;SDS011;26970;49.900;10.774;2023-07-02T13:57:24;15.38;;;8.75;;
39502;SDS011;26970;49.900;10.774;2023-07-02T13:59:49;13.32;;;8.38;;
39502;SDS011;26970;49.900;10.774;2023-07-02T14:02:15;14.38;;;8.45;;
39502;SDS011;26970;49.900;10.774;2023-07-02T14:04:41;15.45;;;8.15;;
39502;SDS011;26970;49.900;10.774;2023-07-02T14:07:06;14.30;;;7.85;;
39502;SDS011;26970;49.900;10.774;2023-07-02T14:09:32;13.30;;;7.97;;
39502;SDS011;26970;49.900;10.774;2023-07-02T14:11:57;12.20;;;7.38;;
39502;SDS011;26970;49.900;10.774;2023-07-02T14:14:23;11.48;;;8.30;;
39502;SDS011;26970;49.900;10.774;2023-07-02T14:16:48;13.02;;;8.20;;
39502;SDS011;26970;49.900;10.774;2023-07-02T14:19:14;14.75;;;8.30;;
39502;SDS011;26970;49.900;10.774;2023-07-02T14:21:40;13.10;;;8.60;;
39502;SDS011;26970;49.900;10.774;2023-07-02T14:24:05;13.32;;;7.70;;
39502;SDS011;26970;49.900;10.774;2023-07-02T14:26:31;14.57;;;8.57;;
39502;SDS011;26970;49.900;10.774;2023-07-02T14:28:56;13.68;;;8.23;;